sensor_id;sensor_type;location;lat;lon;timestamp;temperature;humidity
8892;DHT22;4482;54.332;10.118;2023-08-17T00:01:30;15.40;99.90
8892;DHT22;4482;54.332;10.118;2023-08-17T00:03:56;15.50;99.90
8892;DHT22;4482;54.332;10.118;2023-08-17T00:06:23;15.40;99.90
8892;DHT22;4482;54.332;10.118;2023-08-17T00:08:51;15.50;99.90
8892;DHT22;4482;54.332;10.118;2023-08-17T00:11:18;15.40;99.90
8892;DHT22;4482;54.332;10.118;2023-08-17T00:13:44;15.40;99.90
8892;DHT22;4482;54.332;10.118;2023-08-17T00:16:12;15.40;99.90
8892;DHT22;4482;54.332;10.118;2023-08-17T00:18:39;15.40;99.90
8892;DHT22;4482;54.332;10.118;2023-08-17T00:21:05;15.40;99.90
8892;DHT22;4482;54.332;10.118;2023-08-17T00:23:32;15.40;99.90
8892;DHT22;4482;54.332;10.118;2023-08-17T00:25:59;15.50;99.90
8892;DHT22;4482;54.332;10.118;2023-08-17T00:28:25;15.50;99.90
8892;DHT22;4482;54.332;10.118;2023-08-17T00:30:52;15.50;99.90
8892;DHT22;4482;54.332;10.118;2023-08-17T00:33:21;15.40;99.90
8892;DHT22;4482;54.332;10.118;2023-08-17T00:35:47;15.40;99.90
8892;DHT22;4482;54.332;10.118;2023-08-17T00:38:14;15.40;99.90
8892;DHT22;4482;54.332;10.118;2023-08-17T00:40:40;15.50;99.90
8892;DHT22;4482;54.332;10.118;2023-08-17T00:43:07;15.40;99.90
8892;DHT22;4482;54.332;10.118;2023-08-17T00:45:34;15.40;99.90
8892;DHT22;4482;54.332;10.118;2023-08-17T00:48:01;15.40;99.90
8892;DHT22;4482;54.332;10.118;2023-08-17T00:50:30;15.40;99.90
8892;DHT22;4482;54.332;10.118;2023-08-17T00:52:56;15.40;99.90
8892;DHT22;4482;54.332;10.118;2023-08-17T00:55:24;15.40;99.90
8892;DHT22;4482;54.332;10.118;2023-08-17T00:57:50;15.40;99.90
8892;DHT22;4482;54.332;10.118;2023-08-17T01:00:18;15.40;99.90
8892;DHT22;4482;54.332;10.118;2023-08-17T01:02:44;15.40;99.90
8892;DHT22;4482;54.332;10.118;2023-08-17T01:05:12;15.40;99.90
8892;DHT22;4482;54.332;10.118;2023-08-17T01:07:40;15.40;99.90
8892;DHT22;4482;54.332;10.118;2023-08-17T01:10:07;15.40;99.90
8892;DHT22;4482;54.332;10.118;2023-08-17T01:12:36;15.50;99.90
8892;DHT22;4482;54.332;10.118;2023-08-17T01:15:05;15.50;99.90
8892;DHT22;4482;54.332;10.118;2023-08-17T01:17:37;15.50;99.90
8892;DHT22;4482;54.332;10.118;2023-08-17T01:20:07;15.60;99.90
8892;DHT22;4482;54.332;10.118;2023-08-17T01:22:34;15.60;99.90
8892;DHT22;4482;54.332;10.118;2023-08-17T01:25:03;15.60;99.90
8892;DHT22;4482;54.332;10.118;2023-08-17T01:27:39;15.60;99.90
8892;DHT22;4482;54.332;10.118;2023-08-17T01:30:06;15.60;99.90
8892;DHT22;4482;54.332;10.118;2023-08-17T01:32:34;15.60;99.90
8892;DHT22;4482;54.332;10.118;2023-08-17T01:35:04;15.70;99.90
8892;DHT22;4482;54.332;10.118;2023-08-17T01:37:35;15.70;99.90
8892;DHT22;4482;54.332;10.118;2023-08-17T01:40:06;15.70;99.90
8892;DHT22;4482;54.332;10.118;2023-08-17T01:42:34;15.70;99.90
8892;DHT22;4482;54.332;10.118;2023-08-17T01:45:01;15.70;99.90
8892;DHT22;4482;54.332;10.118;2023-08-17T01:47:28;15.70;99.90
8892;DHT22;4482;54.332;10.118;2023-08-17T01:49:56;15.70;99.90
8892;DHT22;4482;54.332;10.118;2023-08-17T01:52:25;15.70;99.90
8892;DHT22;4482;54.332;10.118;2023-08-17T01:54:53;15.70;99.90
8892;DHT22;4482;54.332;10.118;2023-08-17T01:57:21;15.70;99.90
8892;DHT22;4482;54.332;10.118;2023-08-17T01:59:47;15.60;99.90
8892;DHT22;4482;54.332;10.118;2023-08-17T02:02:14;15.60;99.90
8892;DHT22;4482;54.332;10.118;2023-08-17T02:04:41;15.60;99.90
8892;DHT22;4482;54.332;10.118;2023-08-17T02:07:07;15.60;99.90
8892;DHT22;4482;54.332;10.118;2023-08-17T02:09:34;15.60;99.90
8892;DHT22;4482;54.332;10.118;2023-08-17T02:12:00;15.60;99.90
8892;DHT22;4482;54.332;10.118;2023-08-17T02:14:28;15.60;99.90
8892;DHT22;4482;54.332;10.118;2023-08-17T02:16:55;15.60;99.90
8892;DHT22;4482;54.332;10.118;2023-08-17T02:19:22;15.60;99.90
8892;DHT22;4482;54.332;10.118;2023-08-17T02:21:48;15.60;99.90
8892;DHT22;4482;54.332;10.118;2023-08-17T02:24:15;15.60;99.90
8892;DHT22;4482;54.332;10.118;2023-08-17T02:26:42;15.60;99.90
8892;DHT22;4482;54.332;10.118;2023-08-17T02:29:08;15.70;99.90
8892;DHT22;4482;54.332;10.118;2023-08-17T02:31:36;15.70;99.90
8892;DHT22;4482;54.332;10.118;2023-08-17T02:34:03;15.70;99.90
8892;DHT22;4482;54.332;10.118;2023-08-17T02:36:30;15.70;99.90
8892;DHT22;4482;54.332;10.118;2023-08-17T02:38:57;15.80;99.90
8892;DHT22;4482;54.332;10.118;2023-08-17T02:41:23;15.70;99.90
8892;DHT22;4482;54.332;10.118;2023-08-17T02:43:50;15.80;99.90
8892;DHT22;4482;54.332;10.118;2023-08-17T02:46:17;15.70;99.90
8892;DHT22;4482;54.332;10.118;2023-08-17T02:48:45;15.70;99.90
8892;DHT22;4482;54.332;10.118;2023-08-17T02:51:11;15.70;99.90
8892;DHT22;4482;54.332;10.118;2023-08-17T02:53:38;15.70;99.90
8892;DHT22;4482;54.332;10.118;2023-08-17T02:56:04;15.80;99.90
8892;DHT22;4482;54.332;10.118;2023-08-17T02:58:31;15.80;99.90
8892;DHT22;4482;54.332;10.118;2023-08-17T03:00:58;15.80;99.90
8892;DHT22;4482;54.332;10.118;2023-08-17T03:03:24;15.80;99.90
8892;DHT22;4482;54.332;10.118;2023-08-17T03:05:52;15.80;99.90
8892;DHT22;4482;54.332;10.118;2023-08-17T03:08:19;15.80;99.90
8892;DHT22;4482;54.332;10.118;2023-08-17T03:10:46;15.80;99.90
8892;DHT22;4482;54.332;10.118;2023-08-17T03:13:13;15.90;99.90
8892;DHT22;4482;54.332;10.118;2023-08-17T03:15:40;15.90;99.90
8892;DHT22;4482;54.332;10.118;2023-08-17T03:18:07;15.90;99.90
8892;DHT22;4482;54.332;10.118;2023-08-17T03:20:33;16.00;99.90
8892;DHT22;4482;54.332;10.118;2023-08-17T03:23:01;16.00;99.90
8892;DHT22;4482;54.332;10.118;2023-08-17T03:25:31;16.00;99.90
8892;DHT22;4482;54.332;10.118;2023-08-17T03:27:58;16.00;99.90
8892;DHT22;4482;54.332;10.118;2023-08-17T03:30:24;16.00;99.90
8892;DHT22;4482;54.332;10.118;2023-08-17T03:32:51;16.00;99.90
8892;DHT22;4482;54.332;10.118;2023-08-17T03:35:18;16.00;99.90
8892;DHT22;4482;54.332;10.118;2023-08-17T03:37:44;16.00;99.90
8892;DHT22;4482;54.332;10.118;2023-08-17T03:40:13;16.00;99.90
8892;DHT22;4482;54.332;10.118;2023-08-17T03:42:39;16.10;99.90
8892;DHT22;4482;54.332;10.118;2023-08-17T03:45:07;16.00;99.90
8892;DHT22;4482;54.332;10.118;2023-08-17T03:47:33;16.10;99.90
8892;DHT22;4482;54.332;10.118;2023-08-17T03:50:00;16.10;99.90
8892;DHT22;4482;54.332;10.118;2023-08-17T03:52:27;16.00;99.90
8892;DHT22;4482;54.332;10.118;2023-08-17T03:54:53;16.00;99.90
8892;DHT22;4482;54.332;10.118;2023-08-17T03:57:21;16.10;99.90
8892;DHT22;4482;54.332;10.118;2023-08-17T04:00:41;16.10;99.90
8892;DHT22;4482;54.332;10.118;2023-08-17T04:03:08;16.10;99.90
8892;DHT22;4482;54.332;10.118;2023-08-17T04:05:35;16.10;99.90
8892;DHT22;4482;54.332;10.118;2023-08-17T04:08:01;16.10;99.90
8892;DHT22;4482;54.332;10.118;2023-08-17T04:10:29;16.10;99.90
8892;DHT22;4482;54.332;10.118;2023-08-17T04:12:55;16.20;99.90
8892;DHT22;4482;54.332;10.118;2023-08-17T04:15:22;16.10;99.90
8892;DHT22;4482;54.332;10.118;2023-08-17T04:17:50;16.00;99.90
8892;DHT22;4482;54.332;10.118;2023-08-17T04:20:17;16.00;99.90
8892;DHT22;4482;54.332;10.118;2023-08-17T04:22:44;16.00;99.90
8892;DHT22;4482;54.332;10.118;2023-08-17T04:25:11;16.10;99.90
8892;DHT22;4482;54.332;10.118;2023-08-17T04:27:37;16.10;99.90
8892;DHT22;4482;54.332;10.118;2023-08-17T04:30:04;16.10;99.90
8892;DHT22;4482;54.332;10.118;2023-08-17T04:32:31;16.10;99.90
8892;DHT22;4482;54.332;10.118;2023-08-17T04:34:59;16.10;99.90
8892;DHT22;4482;54.332;10.118;2023-08-17T04:37:26;16.10;99.90
8892;DHT22;4482;54.332;10.118;2023-08-17T04:39:53;16.10;99.90
8892;DHT22;4482;54.332;10.118;2023-08-17T04:42:20;16.10;99.90
8892;DHT22;4482;54.332;10.118;2023-08-17T04:44:46;16.10;99.90
8892;DHT22;4482;54.332;10.118;2023-08-17T04:47:13;16.10;99.90
8892;DHT22;4482;54.332;10.118;2023-08-17T04:49:40;16.10;99.90
8892;DHT22;4482;54.332;10.118;2023-08-17T04:52:08;16.20;99.90
8892;DHT22;4482;54.332;10.118;2023-08-17T04:54:34;16.20;99.90
8892;DHT22;4482;54.332;10.118;2023-08-17T04:57:01;16.20;99.90
8892;DHT22;4482;54.332;10.118;2023-08-17T04:59:29;16.30;99.90
8892;DHT22;4482;54.332;10.118;2023-08-17T05:01:56;16.30;99.90
8892;DHT22;4482;54.332;10.118;2023-08-17T05:04:23;16.30;99.90
8892;DHT22;4482;54.332;10.118;2023-08-17T05:06:49;16.20;99.90
8892;DHT22;4482;54.332;10.118;2023-08-17T05:09:17;16.30;99.90
8892;DHT22;4482;54.332;10.118;2023-08-17T05:11:44;16.30;99.90
8892;DHT22;4482;54.332;10.118;2023-08-17T05:14:11;16.30;99.90
8892;DHT22;4482;54.332;10.118;2023-08-17T05:16:37;16.40;99.90
8892;DHT22;4482;54.332;10.118;2023-08-17T05:19:04;16.40;99.90
8892;DHT22;4482;54.332;10.118;2023-08-17T05:21:31;16.40;99.90
8892;DHT22;4482;54.332;10.118;2023-08-17T05:23:57;16.40;99.90
8892;DHT22;4482;54.332;10.118;2023-08-17T05:26:25;16.40;99.90
8892;DHT22;4482;54.332;10.118;2023-08-17T05:28:52;16.50;99.90
8892;DHT22;4482;54.332;10.118;2023-08-17T05:31:19;16.50;99.90
8892;DHT22;4482;54.332;10.118;2023-08-17T05:33:45;16.50;99.90
8892;DHT22;4482;54.332;10.118;2023-08-17T05:36:12;16.50;99.90
8892;DHT22;4482;54.332;10.118;2023-08-17T05:38:39;16.50;99.90
8892;DHT22;4482;54.332;10.118;2023-08-17T05:41:06;16.50;99.90
8892;DHT22;4482;54.332;10.118;2023-08-17T05:43:34;16.50;99.90
8892;DHT22;4482;54.332;10.118;2023-08-17T05:46:01;16.50;99.90
8892;DHT22;4482;54.332;10.118;2023-08-17T05:48:28;16.50;99.90
8892;DHT22;4482;54.332;10.118;2023-08-17T05:50:55;16.60;99.90
8892;DHT22;4482;54.332;10.118;2023-08-17T05:53:21;16.60;99.90
8892;DHT22;4482;54.332;10.118;2023-08-17T05:55:48;16.60;99.90
8892;DHT22;4482;54.332;10.118;2023-08-17T05:58:15;16.60;99.90
8892;DHT22;4482;54.332;10.118;2023-08-17T06:00:44;16.60;99.90
8892;DHT22;4482;54.332;10.118;2023-08-17T06:03:11;16.60;99.90
8892;DHT22;4482;54.332;10.118;2023-08-17T06:05:39;16.60;99.90
8892;DHT22;4482;54.332;10.118;2023-08-17T06:08:06;16.60;99.90
8892;DHT22;4482;54.332;10.118;2023-08-17T06:10:33;16.60;99.90
8892;DHT22;4482;54.332;10.118;2023-08-17T06:12:59;16.70;99.90
8892;DHT22;4482;54.332;10.118;2023-08-17T06:15:26;16.70;99.90
8892;DHT22;4482;54.332;10.118;2023-08-17T06:17:54;16.70;99.90
8892;DHT22;4482;54.332;10.118;2023-08-17T06:20:21;16.70;99.90
8892;DHT22;4482;54.332;10.118;2023-08-17T06:22:47;16.70;99.90
8892;DHT22;4482;54.332;10.118;2023-08-17T06:25:15;16.70;99.90
8892;DHT22;4482;54.332;10.118;2023-08-17T06:27:42;16.70;99.90
8892;DHT22;4482;54.332;10.118;2023-08-17T06:30:09;16.70;99.90
8892;DHT22;4482;54.332;10.118;2023-08-17T06:32:36;16.70;99.90
8892;DHT22;4482;54.332;10.118;2023-08-17T06:35:04;16.70;99.90
8892;DHT22;4482;54.332;10.118;2023-08-17T06:37:31;16.70;99.90
8892;DHT22;4482;54.332;10.118;2023-08-17T06:39:58;16.70;99.90
8892;DHT22;4482;54.332;10.118;2023-08-17T06:42:24;16.70;99.90
8892;DHT22;4482;54.332;10.118;2023-08-17T06:44:51;16.70;99.90
8892;DHT22;4482;54.332;10.118;2023-08-17T06:47:18;16.70;99.90
8892;DHT22;4482;54.332;10.118;2023-08-17T06:49:44;16.80;99.90
8892;DHT22;4482;54.332;10.118;2023-08-17T06:52:12;16.80;99.90
8892;DHT22;4482;54.332;10.118;2023-08-17T06:54:39;16.80;99.90
8892;DHT22;4482;54.332;10.118;2023-08-17T06:57:06;16.80;99.90
8892;DHT22;4482;54.332;10.118;2023-08-17T06:59:33;16.90;99.90
8892;DHT22;4482;54.332;10.118;2023-08-17T07:01:59;16.90;99.90
8892;DHT22;4482;54.332;10.118;2023-08-17T07:04:26;16.80;99.90
8892;DHT22;4482;54.332;10.118;2023-08-17T07:06:53;16.80;99.90
8892;DHT22;4482;54.332;10.118;2023-08-17T07:09:21;16.90;99.90
8892;DHT22;4482;54.332;10.118;2023-08-17T07:11:47;17.00;99.90
8892;DHT22;4482;54.332;10.118;2023-08-17T07:14:14;16.90;99.90
8892;DHT22;4482;54.332;10.118;2023-08-17T07:16:40;17.00;99.90
8892;DHT22;4482;54.332;10.118;2023-08-17T07:19:07;17.00;99.90
8892;DHT22;4482;54.332;10.118;2023-08-17T07:21:34;17.00;99.90
8892;DHT22;4482;54.332;10.118;2023-08-17T07:24:10;17.00;99.90
8892;DHT22;4482;54.332;10.118;2023-08-17T07:26:38;17.00;99.90
8892;DHT22;4482;54.332;10.118;2023-08-17T07:29:05;17.00;99.90
8892;DHT22;4482;54.332;10.118;2023-08-17T07:31:32;16.90;99.90
8892;DHT22;4482;54.332;10.118;2023-08-17T07:33:59;16.90;99.90
8892;DHT22;4482;54.332;10.118;2023-08-17T07:36:25;16.90;99.90
8892;DHT22;4482;54.332;10.118;2023-08-17T07:38:52;16.80;99.90
8892;DHT22;4482;54.332;10.118;2023-08-17T07:41:18;16.80;99.90
8892;DHT22;4482;54.332;10.118;2023-08-17T07:43:46;16.90;99.90
8892;DHT22;4482;54.332;10.118;2023-08-17T07:46:13;16.90;99.90
8892;DHT22;4482;54.332;10.118;2023-08-17T07:48:40;16.90;99.90
8892;DHT22;4482;54.332;10.118;2023-08-17T07:51:06;16.90;99.90
8892;DHT22;4482;54.332;10.118;2023-08-17T07:53:33;17.00;99.90
8892;DHT22;4482;54.332;10.118;2023-08-17T07:56:00;17.10;99.90
8892;DHT22;4482;54.332;10.118;2023-08-17T07:58:26;17.10;99.90
8892;DHT22;4482;54.332;10.118;2023-08-17T08:00:54;17.20;99.90
8892;DHT22;4482;54.332;10.118;2023-08-17T08:03:21;17.30;99.90
8892;DHT22;4482;54.332;10.118;2023-08-17T08:05:48;17.40;99.90
8892;DHT22;4482;54.332;10.118;2023-08-17T08:08:15;17.50;99.90
8892;DHT22;4482;54.332;10.118;2023-08-17T08:10:43;17.60;99.90
8892;DHT22;4482;54.332;10.118;2023-08-17T08:13:10;17.60;99.90
8892;DHT22;4482;54.332;10.118;2023-08-17T08:15:37;17.60;99.90
8892;DHT22;4482;54.332;10.118;2023-08-17T08:18:05;17.60;99.90
8892;DHT22;4482;54.332;10.118;2023-08-17T08:20:31;17.70;99.90
8892;DHT22;4482;54.332;10.118;2023-08-17T08:22:58;17.70;99.90
8892;DHT22;4482;54.332;10.118;2023-08-17T08:25:25;17.70;99.90
8892;DHT22;4482;54.332;10.118;2023-08-17T08:27:51;17.80;99.90
8892;DHT22;4482;54.332;10.118;2023-08-17T08:30:18;17.80;99.90
8892;DHT22;4482;54.332;10.118;2023-08-17T08:32:44;17.70;99.90
8892;DHT22;4482;54.332;10.118;2023-08-17T08:35:12;17.70;99.90
8892;DHT22;4482;54.332;10.118;2023-08-17T08:37:39;17.70;99.90
8892;DHT22;4482;54.332;10.118;2023-08-17T08:40:06;17.70;99.90
8892;DHT22;4482;54.332;10.118;2023-08-17T08:42:36;17.80;99.90
8892;DHT22;4482;54.332;10.118;2023-08-17T08:45:03;17.80;99.90
8892;DHT22;4482;54.332;10.118;2023-08-17T08:47:30;17.70;99.90
8892;DHT22;4482;54.332;10.118;2023-08-17T08:49:58;17.70;99.90
8892;DHT22;4482;54.332;10.118;2023-08-17T08:52:32;17.70;99.90
8892;DHT22;4482;54.332;10.118;2023-08-17T08:55:00;17.80;99.90
8892;DHT22;4482;54.332;10.118;2023-08-17T08:57:29;17.80;99.90
8892;DHT22;4482;54.332;10.118;2023-08-17T08:59:56;17.70;99.90
8892;DHT22;4482;54.332;10.118;2023-08-17T09:02:23;17.70;99.90
8892;DHT22;4482;54.332;10.118;2023-08-17T09:04:52;17.60;99.90
8892;DHT22;4482;54.332;10.118;2023-08-17T09:07:19;17.60;99.90
8892;DHT22;4482;54.332;10.118;2023-08-17T09:09:47;17.50;99.90
8892;DHT22;4482;54.332;10.118;2023-08-17T09:12:14;17.60;99.90
8892;DHT22;4482;54.332;10.118;2023-08-17T09:14:41;17.50;99.90
8892;DHT22;4482;54.332;10.118;2023-08-17T09:17:07;17.60;99.90
8892;DHT22;4482;54.332;10.118;2023-08-17T09:19:34;17.60;99.90
8892;DHT22;4482;54.332;10.118;2023-08-17T09:22:01;17.60;99.90
8892;DHT22;4482;54.332;10.118;2023-08-17T09:24:34;17.50;99.90
8892;DHT22;4482;54.332;10.118;2023-08-17T09:27:03;17.50;99.90
8892;DHT22;4482;54.332;10.118;2023-08-17T09:29:30;17.60;99.90
8892;DHT22;4482;54.332;10.118;2023-08-17T09:32:04;17.60;99.90
8892;DHT22;4482;54.332;10.118;2023-08-17T09:34:31;17.50;99.90
8892;DHT22;4482;54.332;10.118;2023-08-17T09:37:02;17.50;99.90
8892;DHT22;4482;54.332;10.118;2023-08-17T09:39:28;17.50;99.90
8892;DHT22;4482;54.332;10.118;2023-08-17T09:41:55;17.50;99.90
8892;DHT22;4482;54.332;10.118;2023-08-17T09:44:23;17.50;99.90
8892;DHT22;4482;54.332;10.118;2023-08-17T09:46:50;17.50;99.90
8892;DHT22;4482;54.332;10.118;2023-08-17T09:49:17;17.60;99.90
8892;DHT22;4482;54.332;10.118;2023-08-17T09:51:44;17.50;99.90
8892;DHT22;4482;54.332;10.118;2023-08-17T09:54:17;17.50;99.90
8892;DHT22;4482;54.332;10.118;2023-08-17T09:56:44;17.40;99.90
8892;DHT22;4482;54.332;10.118;2023-08-17T09:59:11;17.30;99.90
8892;DHT22;4482;54.332;10.118;2023-08-17T10:01:39;17.10;99.90
8892;DHT22;4482;54.332;10.118;2023-08-17T10:04:06;17.00;99.90
8892;DHT22;4482;54.332;10.118;2023-08-17T10:06:33;16.80;99.90
8892;DHT22;4482;54.332;10.118;2023-08-17T10:09:00;16.80;99.90
8892;DHT22;4482;54.332;10.118;2023-08-17T10:11:33;16.80;99.90
8892;DHT22;4482;54.332;10.118;2023-08-17T10:14:04;16.80;99.90
8892;DHT22;4482;54.332;10.118;2023-08-17T10:16:36;16.80;99.90
8892;DHT22;4482;54.332;10.118;2023-08-17T10:19:09;16.80;99.90
8892;DHT22;4482;54.332;10.118;2023-08-17T10:21:37;16.80;99.90
8892;DHT22;4482;54.332;10.118;2023-08-17T10:24:06;16.80;99.90
8892;DHT22;4482;54.332;10.118;2023-08-17T10:26:33;16.80;99.90
8892;DHT22;4482;54.332;10.118;2023-08-17T10:29:00;16.80;99.90
8892;DHT22;4482;54.332;10.118;2023-08-17T10:31:28;16.80;99.90
8892;DHT22;4482;54.332;10.118;2023-08-17T10:33:55;16.80;99.90
8892;DHT22;4482;54.332;10.118;2023-08-17T10:36:24;16.80;99.90
8892;DHT22;4482;54.332;10.118;2023-08-17T10:41:33;16.70;99.90
8892;DHT22;4482;54.332;10.118;2023-08-17T10:44:11;16.70;99.90
8892;DHT22;4482;54.332;10.118;2023-08-17T10:46:38;16.70;99.90
8892;DHT22;4482;54.332;10.118;2023-08-17T10:49:05;16.70;99.90
8892;DHT22;4482;54.332;10.118;2023-08-17T10:51:33;16.70;99.90
8892;DHT22;4482;54.332;10.118;2023-08-17T10:54:02;16.70;99.90
8892;DHT22;4482;54.332;10.118;2023-08-17T10:56:29;16.70;99.90
8892;DHT22;4482;54.332;10.118;2023-08-17T10:58:58;16.70;99.90
8892;DHT22;4482;54.332;10.118;2023-08-17T11:01:31;16.70;99.90
8892;DHT22;4482;54.332;10.118;2023-08-17T11:04:10;16.70;99.90
8892;DHT22;4482;54.332;10.118;2023-08-17T11:06:39;16.70;99.90
8892;DHT22;4482;54.332;10.118;2023-08-17T11:09:06;16.80;99.90
8892;DHT22;4482;54.332;10.118;2023-08-17T11:11:33;16.80;99.90
8892;DHT22;4482;54.332;10.118;2023-08-17T11:14:00;16.70;99.90
8892;DHT22;4482;54.332;10.118;2023-08-17T11:16:29;16.70;99.90
8892;DHT22;4482;54.332;10.118;2023-08-17T11:18:55;16.80;99.90
8892;DHT22;4482;54.332;10.118;2023-08-17T11:21:24;16.80;99.90
8892;DHT22;4482;54.332;10.118;2023-08-17T11:23:52;16.80;99.90
8892;DHT22;4482;54.332;10.118;2023-08-17T11:26:21;16.90;99.90
8892;DHT22;4482;54.332;10.118;2023-08-17T11:28:48;16.90;99.90
8892;DHT22;4482;54.332;10.118;2023-08-17T11:31:14;16.90;99.90
8892;DHT22;4482;54.332;10.118;2023-08-17T11:33:41;16.90;99.90
8892;DHT22;4482;54.332;10.118;2023-08-17T11:36:08;16.90;99.90
8892;DHT22;4482;54.332;10.118;2023-08-17T11:38:35;16.90;99.90
8892;DHT22;4482;54.332;10.118;2023-08-17T11:41:07;17.00;99.90
8892;DHT22;4482;54.332;10.118;2023-08-17T11:43:34;17.00;99.90
8892;DHT22;4482;54.332;10.118;2023-08-17T11:46:01;17.20;99.90
8892;DHT22;4482;54.332;10.118;2023-08-17T11:48:28;17.20;99.90
8892;DHT22;4482;54.332;10.118;2023-08-17T11:50:55;17.20;99.90
8892;DHT22;4482;54.332;10.118;2023-08-17T11:53:21;17.30;99.90
8892;DHT22;4482;54.332;10.118;2023-08-17T11:55:48;17.30;99.90
8892;DHT22;4482;54.332;10.118;2023-08-17T11:58:17;17.30;99.90
8892;DHT22;4482;54.332;10.118;2023-08-17T12:00:44;17.30;99.90
8892;DHT22;4482;54.332;10.118;2023-08-17T12:03:13;17.30;99.90
8892;DHT22;4482;54.332;10.118;2023-08-17T12:05:39;17.20;99.90
8892;DHT22;4482;54.332;10.118;2023-08-17T12:08:07;17.30;99.90
8892;DHT22;4482;54.332;10.118;2023-08-17T12:10:34;17.20;99.90
8892;DHT22;4482;54.332;10.118;2023-08-17T12:13:03;17.40;99.90
8892;DHT22;4482;54.332;10.118;2023-08-17T12:15:32;17.40;99.90
8892;DHT22;4482;54.332;10.118;2023-08-17T12:17:59;17.40;99.90
8892;DHT22;4482;54.332;10.118;2023-08-17T12:20:26;17.40;99.90
8892;DHT22;4482;54.332;10.118;2023-08-17T12:22:53;17.50;99.90
8892;DHT22;4482;54.332;10.118;2023-08-17T12:25:20;17.40;99.90
8892;DHT22;4482;54.332;10.118;2023-08-17T12:27:49;17.40;99.90
8892;DHT22;4482;54.332;10.118;2023-08-17T12:30:24;17.40;99.90
8892;DHT22;4482;54.332;10.118;2023-08-17T12:32:52;17.30;99.90
8892;DHT22;4482;54.332;10.118;2023-08-17T12:35:18;17.40;99.90
8892;DHT22;4482;54.332;10.118;2023-08-17T12:37:48;17.40;99.90
8892;DHT22;4482;54.332;10.118;2023-08-17T12:40:15;17.40;99.90
8892;DHT22;4482;54.332;10.118;2023-08-17T12:42:41;17.40;99.90
8892;DHT22;4482;54.332;10.118;2023-08-17T12:45:08;17.50;99.90
8892;DHT22;4482;54.332;10.118;2023-08-17T12:47:35;17.50;99.90
8892;DHT22;4482;54.332;10.118;2023-08-17T12:50:03;17.60;99.90
8892;DHT22;4482;54.332;10.118;2023-08-17T12:52:30;17.50;99.90
8892;DHT22;4482;54.332;10.118;2023-08-17T12:54:57;17.60;99.90
8892;DHT22;4482;54.332;10.118;2023-08-17T12:57:26;17.70;99.90
8892;DHT22;4482;54.332;10.118;2023-08-17T12:59:53;17.60;99.90
8892;DHT22;4482;54.332;10.118;2023-08-17T13:02:20;17.60;99.90
8892;DHT22;4482;54.332;10.118;2023-08-17T13:04:46;17.60;99.90
8892;DHT22;4482;54.332;10.118;2023-08-17T13:07:14;17.50;99.90
8892;DHT22;4482;54.332;10.118;2023-08-17T13:09:42;17.50;99.90
8892;DHT22;4482;54.332;10.118;2023-08-17T13:12:10;17.50;99.90
8892;DHT22;4482;54.332;10.118;2023-08-17T13:14:37;17.50;99.90
8892;DHT22;4482;54.332;10.118;2023-08-17T13:17:03;17.40;99.90
8892;DHT22;4482;54.332;10.118;2023-08-17T13:19:30;17.30;99.90
8892;DHT22;4482;54.332;10.118;2023-08-17T13:21:58;17.30;99.90
8892;DHT22;4482;54.332;10.118;2023-08-17T13:24:26;17.30;99.90
8892;DHT22;4482;54.332;10.118;2023-08-17T13:26:53;17.30;99.90
8892;DHT22;4482;54.332;10.118;2023-08-17T13:29:22;17.30;99.90
8892;DHT22;4482;54.332;10.118;2023-08-17T13:31:49;17.20;99.90
8892;DHT22;4482;54.332;10.118;2023-08-17T13:34:15;17.10;99.90
8892;DHT22;4482;54.332;10.118;2023-08-17T13:36:42;17.10;99.90
8892;DHT22;4482;54.332;10.118;2023-08-17T13:39:09;17.00;99.90
8892;DHT22;4482;54.332;10.118;2023-08-17T13:41:37;16.90;99.90
8892;DHT22;4482;54.332;10.118;2023-08-17T13:44:04;16.90;99.90
8892;DHT22;4482;54.332;10.118;2023-08-17T13:46:31;16.90;99.90
8892;DHT22;4482;54.332;10.118;2023-08-17T13:48:57;16.90;99.90
8892;DHT22;4482;54.332;10.118;2023-08-17T13:51:24;16.80;99.90
8892;DHT22;4482;54.332;10.118;2023-08-17T13:53:51;16.80;99.90
8892;DHT22;4482;54.332;10.118;2023-08-17T13:56:17;16.80;99.90
8892;DHT22;4482;54.332;10.118;2023-08-17T13:58:45;16.90;99.90
8892;DHT22;4482;54.332;10.118;2023-08-17T14:01:12;16.80;99.90
8892;DHT22;4482;54.332;10.118;2023-08-17T14:03:39;16.90;99.90
8892;DHT22;4482;54.332;10.118;2023-08-17T14:06:07;16.90;99.90
8892;DHT22;4482;54.332;10.118;2023-08-17T14:08:34;16.80;99.90
8892;DHT22;4482;54.332;10.118;2023-08-17T14:11:01;16.80;99.90
8892;DHT22;4482;54.332;10.118;2023-08-17T14:13:27;16.80;99.90
8892;DHT22;4482;54.332;10.118;2023-08-17T14:15:55;16.80;99.90
8892;DHT22;4482;54.332;10.118;2023-08-17T14:18:23;16.80;99.90
8892;DHT22;4482;54.332;10.118;2023-08-17T14:20:51;16.80;99.90
8892;DHT22;4482;54.332;10.118;2023-08-17T14:23:18;16.80;99.90
8892;DHT22;4482;54.332;10.118;2023-08-17T14:25:45;16.90;99.90
8892;DHT22;4482;54.332;10.118;2023-08-17T14:28:11;16.90;99.90
8892;DHT22;4482;54.332;10.118;2023-08-17T14:30:38;16.90;99.90
8892;DHT22;4482;54.332;10.118;2023-08-17T14:33:06;16.90;99.90
8892;DHT22;4482;54.332;10.118;2023-08-17T14:35:32;16.90;99.90
8892;DHT22;4482;54.332;10.118;2023-08-17T14:37:59;16.90;99.90
8892;DHT22;4482;54.332;10.118;2023-08-17T14:40:27;16.90;99.90
8892;DHT22;4482;54.332;10.118;2023-08-17T14:42:53;16.80;99.90
8892;DHT22;4482;54.332;10.118;2023-08-17T14:45:20;16.90;99.90
8892;DHT22;4482;54.332;10.118;2023-08-17T14:47:47;16.90;99.90
8892;DHT22;4482;54.332;10.118;2023-08-17T14:50:15;16.90;99.90
8892;DHT22;4482;54.332;10.118;2023-08-17T14:52:41;16.90;99.90
8892;DHT22;4482;54.332;10.118;2023-08-17T14:55:08;16.90;99.90
8892;DHT22;4482;54.332;10.118;2023-08-17T14:57:36;16.90;99.90
8892;DHT22;4482;54.332;10.118;2023-08-17T15:00:03;16.90;99.90
8892;DHT22;4482;54.332;10.118;2023-08-17T15:02:30;16.90;99.90
8892;DHT22;4482;54.332;10.118;2023-08-17T15:04:57;16.90;99.90
8892;DHT22;4482;54.332;10.118;2023-08-17T15:07:25;16.90;99.90
8892;DHT22;4482;54.332;10.118;2023-08-17T15:09:51;17.00;99.90
8892;DHT22;4482;54.332;10.118;2023-08-17T15:12:19;17.00;99.90
8892;DHT22;4482;54.332;10.118;2023-08-17T15:14:45;17.00;99.90
8892;DHT22;4482;54.332;10.118;2023-08-17T15:17:12;16.90;99.90
8892;DHT22;4482;54.332;10.118;2023-08-17T15:19:39;17.00;99.90
8892;DHT22;4482;54.332;10.118;2023-08-17T15:22:06;17.00;99.90
8892;DHT22;4482;54.332;10.118;2023-08-17T15:24:34;17.00;99.90
8892;DHT22;4482;54.332;10.118;2023-08-17T15:27:01;17.00;99.90
8892;DHT22;4482;54.332;10.118;2023-08-17T15:29:28;17.00;99.90
8892;DHT22;4482;54.332;10.118;2023-08-17T15:31:55;16.90;99.90
8892;DHT22;4482;54.332;10.118;2023-08-17T15:34:21;16.90;99.90
8892;DHT22;4482;54.332;10.118;2023-08-17T15:36:48;16.90;99.90
8892;DHT22;4482;54.332;10.118;2023-08-17T15:39:15;16.90;99.90
8892;DHT22;4482;54.332;10.118;2023-08-17T15:41:43;16.90;99.90
8892;DHT22;4482;54.332;10.118;2023-08-17T15:44:09;16.90;99.90
8892;DHT22;4482;54.332;10.118;2023-08-17T15:46:36;16.90;99.90
8892;DHT22;4482;54.332;10.118;2023-08-17T15:49:03;16.90;99.90